Terminal Aerodrome Forecast
Issued by NWS Portland, OR

Home | Current Version | Previous Version | Text Only | Print | Product List | Glossary On
Versions: 1 2 3 4 5 6 7 8 9 10 11 12 13 14 15 16 17 18 19 20 21 22 23 24 25 26 27 28 29 30 31 32 33 34 35
000
FTUS46 KPQR 301126
TAFHIO
TAF
KHIO 301126Z 3012/3112 28005KT P6SM SCT030 BKN045
      TEMPO 3012/3016 -SHRA BKN030
     FM310000 30004KT P6SM BKN050
     FM311000 VRB02KT P6SM BKN015=

USA.gov is the U.S. government's official web portal to all federal, state and local government web resources and services.